Pagina principale
METAR-TAF:

METAR-TAF

Aeroporti :

Aeroporto di Karlsruhe-Baden-Baden

Baden-Baden, Germania

latitudine: 48-46-43N, longitudine: 008-04-47E, altezza: 124 m

Osservazione

Il bollettino è stato emesso 36 minuti fa, alle 13:50 UTC
Vento 3 kt da ovest/nord-ovest, variando fra sud-ovest e nord
Temperature 25°C
Umidità 47%
Pressione 1018 hPa
Visibilità 10 km o più
nessuna nube inferiore a 1500 m e nessun cumulonembo

METAR: EDSB 191350Z 30003KT 220V350 CAVOK 25/13 Q1018

Ora: 16:26 (14:26 UTC)

Previsione

Il bollettino è stato emesso 3 ore e 26 minuti fa, alle 11:00 UTC
Previsione valida dal 19 alle 12 UTC al 20 alle 12 UTC
Vento 4 kt da ovest/nord-ovest
Visibilità 10 km o più
Nubi sparse ad un'altezza di 3500 ft
Evoluzione graduale
dal 20 alle 06 UTC al 20 alle 08 UTC
Vento 5 kt da nord/nord-est

TAF: EDSB 191100Z 1912/2012 30004KT 9999 SCT035 BECMG 2006/2008 02005KT

Osservazioni e previsioni meteorologiche di più di 4000 aeroporti (messaggi METAR e TAF).

Le stazioni disponibili sono rappresentate dai dischi gialli e rossi sulla carta.

Puntare il mouse per vedere il nome della stazione.

Clicca sopra per visualizzare le osservazioni e previsioni meteorologiche.

Per cambiare la mappa : fare clic sui pulsanti verdi con una croce nera per ingrandire, il pulsante verde con un trattino per diminuire, o sulla freccia verde per le mappe adiacenti.


METAR-TAF: